Time;durP1;ratioP1;P1;durP2;ratioP2;P2;SDS_P1;SDS_P2;PMS_P1;PMS_P2;Temp;Humidity;BMP_temperature;BMP_pressure;BME280_temperature;BME280_humidity;BME280_pressure;Samples;Min_cycle;Max_cycle;Signal;HPM_P1;HPM_P2
2022/10/01 00:02:00;;;;;;;3.88;2.47;;;13.70;94.80;;;;;;4946586;29;20062;-95
2022/10/01 00:04:26;;;;;;;5.22;2.80;;;13.70;95.00;;;;;;4946752;29;20061;-94
2022/10/01 00:07:02;;;;;;;4.32;2.90;;;13.70;95.00;;;;;;4947758;29;20019;-95
2022/10/01 00:09:32;;;;;;;4.10;2.45;;;13.70;95.10;;;;;;4968395;29;20058;-95
2022/10/01 00:12:02;;;;;;;4.75;2.80;;;13.60;95.10;;;;;;4932454;29;20027;-94
2022/10/01 00:14:28;;;;;;;4.93;2.75;;;13.60;95.20;;;;;;4930759;29;20036;-96
2022/10/01 00:16:54;;;;;;;4.57;3.03;;;13.70;95.30;;;;;;4933358;29;20039;-95
2022/10/01 00:19:20;;;;;;;3.13;2.17;;;13.60;95.30;;;;;;4938950;29;20027;-96
2022/10/01 00:21:46;;;;;;;3.25;2.83;;;13.60;95.30;;;;;;4957429;28;20103;-93
2022/10/01 00:24:12;;;;;;;4.32;3.03;;;13.60;95.50;;;;;;4961003;28;20126;-92
2022/10/01 00:26:38;;;;;;;3.40;2.50;;;13.60;95.50;;;;;;4959760;28;20097;-92
2022/10/01 00:29:07;;;;;;;3.63;2.97;;;13.60;95.50;;;;;;4945828;29;20476;-93
2022/10/01 00:31:32;;;;;;;4.10;2.92;;;13.60;95.60;;;;;;4945391;29;20042;-94
2022/10/01 00:34:03;;;;;;;5.60;2.72;;;13.50;95.60;;;;;;4944696;29;20031;-92
2022/10/01 00:36:30;;;;;;;3.47;2.57;;;13.50;95.70;;;;;;4962994;29;20066;-93
2022/10/01 00:38:59;;;;;;;3.25;2.95;;;13.50;95.70;;;;;;4944744;29;20019;-94
2022/10/01 00:41:29;;;;;;;3.78;2.80;;;13.50;95.90;;;;;;4944641;29;20078;-95
2022/10/01 00:44:01;;;;;;;3.38;2.75;;;13.50;95.90;;;;;;4947122;29;20077;-93
2022/10/01 00:46:43;;;;;;;3.10;2.53;;;13.50;96.00;;;;;;4945324;29;20472;-94
2022/10/01 00:49:23;;;;;;;4.85;2.80;;;13.50;96.00;;;;;;4948987;29;20328;-94
2022/10/01 00:51:58;;;;;;;4.13;2.70;;;13.50;96.00;;;;;;4948223;29;20039;-93
2022/10/01 00:54:56;;;;;;;4.22;2.67;;;13.50;96.00;;;;;;4947006;29;20034;-94
2022/10/01 00:57:25;;;;;;;3.13;2.83;;;13.40;96.10;;;;;;4947534;29;20051;-94
2022/10/01 00:59:54;;;;;;;5.32;2.42;;;13.40;96.10;;;;;;4948037;29;20024;-93
2022/10/01 01:02:20;;;;;;;3.00;2.70;;;13.40;96.10;;;;;;4949142;29;20050;-91
2022/10/01 01:04:47;;;;;;;3.33;2.40;;;13.40;96.20;;;;;;4932685;29;20095;-92
2022/10/01 01:07:14;;;;;;;3.08;2.55;;;13.40;96.20;;;;;;4948860;29;20058;-94
2022/10/01 01:09:44;;;;;;;3.13;2.47;;;13.40;96.30;;;;;;4948325;29;20479;-93
2022/10/01 01:12:15;;;;;;;4.30;2.88;;;13.30;96.40;;;;;;4947250;29;20098;-93
2022/10/01 01:15:06;;;;;;;5.03;2.72;;;13.40;96.50;;;;;;4948104;29;20122;-91
2022/10/01 01:17:40;;;;;;;3.50;2.70;;;13.30;96.60;;;;;;4947152;29;20113;-91
2022/10/01 01:20:23;;;;;;;3.58;2.72;;;13.30;96.50;;;;;;4947063;29;20031;-92
2022/10/01 01:23:08;;;;;;;3.65;2.72;;;13.40;96.70;;;;;;4965118;29;20032;-91
2022/10/01 01:25:59;;;;;;;6.95;2.85;;;13.30;96.80;;;;;;4931980;29;20042;-91
2022/10/01 01:28:32;;;;;;;;;;;13.30;96.90;;;;;;4902986;29;20086;-89
2022/10/01 01:31:11;;;;;;;4.53;2.85;;;13.40;96.80;;;;;;4963923;29;19933;-91
2022/10/01 01:33:39;;;;;;;4.45;2.70;;;13.40;96.80;;;;;;4964612;29;20463;-91
2022/10/01 01:36:32;;;;;;;6.60;2.95;;;13.30;96.80;;;;;;4964155;28;20134;-92
2022/10/01 01:39:05;;;;;;;4.15;2.67;;;13.30;96.90;;;;;;4914943;29;20277;-91
2022/10/01 01:41:36;;;;;;;3.58;2.90;;;13.40;96.90;;;;;;4924117;29;20063;-92
2022/10/01 01:44:07;;;;;;;3.95;2.75;;;13.40;97.00;;;;;;4921990;29;20036;-93
2022/10/01 01:46:36;;;;;;;2.75;2.30;;;13.30;97.00;;;;;;4906478;29;20025;-92
2022/10/01 01:49:04;;;;;;;3.15;2.40;;;13.30;97.10;;;;;;4913687;29;20469;-92
2022/10/01 01:52:17;;;;;;;3.92;2.95;;;13.30;97.10;;;;;;4925138;29;20092;-93
2022/10/01 01:54:46;;;;;;;3.75;3.00;;;13.30;97.10;;;;;;4919691;29;20033;-92
2022/10/01 01:57:13;;;;;;;2.40;2.20;;;13.30;97.10;;;;;;4907501;29;20056;-92
2022/10/01 01:59:40;;;;;;;4.30;2.47;;;13.30;97.10;;;;;;4922402;29;20041;-92
2022/10/01 02:02:10;;;;;;;2.42;2.17;;;13.40;97.10;;;;;;4923080;29;20027;-91
2022/10/01 02:04:59;;;;;;;4.25;2.10;;;13.40;97.20;;;;;;4938643;29;20033;-92
2022/10/01 02:07:59;;;;;;;2.88;2.28;;;13.30;97.20;;;;;;4927946;29;20047;-92
2022/10/01 02:10:44;;;;;;;2.38;2.05;;;13.30;97.40;;;;;;4924429;29;20039;-93
2022/10/01 02:13:41;;;;;;;2.55;2.00;;;13.30;97.40;;;;;;4925277;29;20084;-90
2022/10/01 02:16:23;;;;;;;2.13;1.58;;;13.40;97.40;;;;;;4924151;29;20461;-93
2022/10/01 02:19:00;;;;;;;1.90;1.70;;;13.40;97.30;;;;;;4924583;29;20028;-91
2022/10/01 02:22:00;;;;;;;2.72;1.50;;;13.40;97.30;;;;;;4923551;29;20039;-91
2022/10/01 02:24:56;;;;;;;3.30;1.55;;;13.50;97.20;;;;;;4920224;29;20129;-83
2022/10/01 02:28:00;;;;;;;1.77;1.52;;;13.50;97.30;;;;;;4918422;29;20029;-84
2022/10/01 02:30:28;;;;;;;1.55;1.45;;;13.40;97.40;;;;;;4918142;29;20024;-83
2022/10/01 02:32:58;;;;;;;2.40;1.40;;;13.40;97.30;;;;;;4918052;29;20370;-84
2022/10/01 02:35:26;;;;;;;1.60;1.50;;;13.30;97.40;;;;;;4903080;29;20028;-84
2022/10/01 02:38:03;;;;;;;2.25;1.30;;;13.30;97.40;;;;;;4931915;29;20102;-83
2022/10/01 02:40:33;;;;;;;2.78;1.20;;;13.30;97.60;;;;;;4938273;29;20082;-84
2022/10/01 02:43:06;;;;;;;3.70;1.40;;;13.20;97.60;;;;;;4937049;29;20122;-82
2022/10/01 02:45:35;;;;;;;1.20;1.10;;;13.20;97.70;;;;;;4938001;29;20024;-83
2022/10/01 02:48:04;;;;;;;1.05;0.95;;;13.20;97.80;;;;;;4937388;29;20483;-82
2022/10/01 02:50:36;;;;;;;1.13;1.02;;;13.20;97.90;;;;;;4936908;29;20032;-82
2022/10/01 02:53:12;;;;;;;1.63;1.10;;;13.20;97.90;;;;;;4936552;29;20035;-83
2022/10/01 02:55:40;;;;;;;1.60;1.30;;;13.20;97.90;;;;;;4937053;29;20024;-83
2022/10/01 02:58:08;;;;;;;1.23;1.08;;;13.20;97.90;;;;;;4936172;29;20512;-83
2022/10/01 03:00:34;;;;;;;0.80;0.80;;;13.20;97.90;;;;;;4937018;29;20052;-83
2022/10/01 03:03:00;;;;;;;1.25;0.80;;;13.20;97.90;;;;;;4937126;29;20083;-84
2022/10/01 03:05:27;;;;;;;1.10;1.00;;;13.10;98.00;;;;;;4937575;29;20028;-83
2022/10/01 03:07:53;;;;;;;1.42;0.80;;;13.10;98.10;;;;;;4904703;29;20034;-82
2022/10/01 03:10:20;;;;;;;0.88;0.80;;;13.10;98.10;;;;;;4936496;29;20024;-85
2022/10/01 03:12:46;;;;;;;0.70;0.70;;;13.10;98.30;;;;;;4920367;29;20035;-83
2022/10/01 03:15:19;;;;;;;1.23;0.90;;;13.00;98.40;;;;;;4936626;29;20110;-82
2022/10/01 03:17:50;;;;;;;1.02;0.93;;;13.00;98.50;;;;;;4937441;29;20031;-83
2022/10/01 03:20:17;;;;;;;0.90;0.70;;;13.00;98.50;;;;;;4936747;29;20479;-83
2022/10/01 03:22:47;;;;;;;1.33;0.80;;;13.00;98.60;;;;;;4937371;29;20030;-83
2022/10/01 03:25:14;;;;;;;0.80;0.60;;;13.00;98.60;;;;;;4936814;29;20522;-83
2022/10/01 03:27:41;;;;;;;0.60;0.60;;;13.00;98.70;;;;;;4936301;29;20294;-83
2022/10/01 03:30:09;;;;;;;1.10;0.80;;;13.00;98.70;;;;;;4936901;29;20019;-84
2022/10/01 03:32:35;;;;;;;1.13;0.82;;;13.10;98.60;;;;;;4936355;29;20030;-83
2022/10/01 03:35:00;;;;;;;0.65;0.63;;;13.10;98.60;;;;;;4936994;29;20034;-83
2022/10/01 03:37:27;;;;;;;0.50;0.50;;;13.10;98.70;;;;;;4905797;29;20480;-83
2022/10/01 03:39:53;;;;;;;0.77;0.77;;;13.00;98.70;;;;;;4955029;29;20032;-82
2022/10/01 03:42:20;;;;;;;0.47;0.43;;;13.10;98.80;;;;;;4959695;29;20012;-81
2022/10/01 03:44:47;;;;;;;1.05;0.70;;;13.10;98.80;;;;;;4940123;29;20068;-84
2022/10/01 03:47:14;;;;;;;1.30;0.57;;;13.20;98.80;;;;;;4959181;29;20023;-82
2022/10/01 03:49:39;;;;;;;0.60;0.60;;;13.20;98.70;;;;;;4923462;29;20036;-82
2022/10/01 03:52:06;;;;;;;0.73;0.73;;;13.10;98.70;;;;;;4905317;29;20032;-85
2022/10/01 03:54:32;;;;;;;0.60;0.60;;;13.20;98.80;;;;;;4937228;29;20031;-83
2022/10/01 03:56:58;;;;;;;0.73;0.70;;;13.20;98.80;;;;;;4920126;29;20070;-83
2022/10/01 03:59:26;;;;;;;0.52;0.52;;;13.20;98.80;;;;;;4919623;29;20052;-83
2022/10/01 04:01:52;;;;;;;1.48;0.70;;;13.30;98.80;;;;;;4935959;29;20035;-83
2022/10/01 04:04:19;;;;;;;0.57;0.57;;;13.30;98.80;;;;;;4920073;29;20469;-83
2022/10/01 04:06:48;;;;;;;0.65;0.40;;;13.30;98.70;;;;;;4920995;29;20039;-88
2022/10/01 04:09:14;;;;;;;0.65;0.65;;;13.40;98.80;;;;;;4907719;29;20039;-87
2022/10/01 04:11:43;;;;;;;0.73;0.73;;;13.40;98.80;;;;;;4938899;29;20031;-86
2022/10/01 04:14:09;;;;;;;0.73;0.70;;;13.40;98.80;;;;;;4938896;29;20424;-88
2022/10/01 04:16:39;;;;;;;3.00;0.65;;;13.40;98.80;;;;;;4939130;29;20024;-87
2022/10/01 04:19:10;;;;;;;2.03;0.70;;;13.40;98.80;;;;;;4939686;29;20491;-88
2022/10/01 04:21:37;;;;;;;;;;;13.40;98.80;;;;;;4923987;29;20031;-87
2022/10/01 04:24:06;;;;;;;0.50;0.50;;;13.40;98.80;;;;;;4941554;29;20005;-87
2022/10/01 04:26:32;;;;;;;1.05;0.30;;;13.50;98.80;;;;;;4940907;29;20052;-87
2022/10/01 04:29:03;;;;;;;1.13;0.60;;;13.50;98.80;;;;;;4923844;29;20028;-88
2022/10/01 04:31:33;;;;;;;;;;;13.50;98.80;;;;;;4939865;29;20060;-88
2022/10/01 04:33:59;;;;;;;1.85;0.60;;;13.50;98.80;;;;;;4938850;29;19915;-87
2022/10/01 04:36:27;;;;;;;0.65;0.50;;;13.50;98.80;;;;;;4938983;29;20031;-88
2022/10/01 04:38:55;;;;;;;0.57;0.50;;;13.50;98.80;;;;;;4923798;29;20051;-87
2022/10/01 04:41:21;;;;;;;0.70;0.50;;;13.50;98.80;;;;;;4923482;29;20040;-87
2022/10/01 04:43:47;;;;;;;0.93;0.63;;;13.50;98.80;;;;;;4939681;29;20020;-87
2022/10/01 04:46:16;;;;;;;0.52;0.50;;;13.60;98.90;;;;;;4922711;29;20535;-88
2022/10/01 04:48:42;;;;;;;0.40;0.40;;;13.60;98.80;;;;;;4922604;29;20023;-87
2022/10/01 04:51:08;;;;;;;0.75;0.47;;;13.60;98.90;;;;;;4938631;29;20066;-89
2022/10/01 04:53:37;;;;;;;0.68;0.50;;;13.60;98.90;;;;;;4923198;29;20552;-88
2022/10/01 04:56:03;;;;;;;1.65;0.50;;;13.60;98.90;;;;;;4922453;29;20035;-88
2022/10/01 04:58:30;;;;;;;0.50;0.50;;;13.60;98.90;;;;;;4937855;29;20021;-88
2022/10/01 05:00:58;;;;;;;0.80;0.50;;;13.70;98.90;;;;;;4937440;29;20028;-87
2022/10/01 05:03:25;;;;;;;1.02;0.45;;;13.60;98.90;;;;;;4939522;29;20031;-87
2022/10/01 05:05:51;;;;;;;0.70;0.60;;;13.60;98.90;;;;;;4937728;29;20095;-88
2022/10/01 05:08:16;;;;;;;1.60;0.40;;;13.60;99.00;;;;;;4939513;29;20028;-87
2022/10/01 05:10:42;;;;;;;0.50;0.50;;;13.70;99.00;;;;;;4938519;29;20032;-88
2022/10/01 05:13:14;;;;;;;0.50;0.50;;;13.60;99.00;;;;;;4922213;29;20039;-86
2022/10/01 05:15:40;;;;;;;0.70;0.40;;;13.60;99.10;;;;;;4938428;29;20024;-86
2022/10/01 05:18:06;;;;;;;0.68;0.50;;;13.70;99.10;;;;;;4923584;29;20459;-88
2022/10/01 05:20:32;;;;;;;0.50;0.50;;;13.70;99.10;;;;;;4932646;29;20036;-86
2022/10/01 05:22:58;;;;;;;0.52;0.52;;;13.70;99.10;;;;;;4959512;29;20048;-87
2022/10/01 05:25:24;;;;;;;0.73;0.60;;;13.70;99.10;;;;;;4958910;29;20039;-86
2022/10/01 05:27:50;;;;;;;0.50;0.50;;;13.70;99.20;;;;;;4950835;29;20091;-88
2022/10/01 05:30:22;;;;;;;0.95;0.60;;;13.70;99.20;;;;;;4943817;29;20020;-86
2022/10/01 05:32:58;;;;;;;0.70;0.70;;;13.80;99.30;;;;;;4943523;29;20044;-87
2022/10/01 05:35:24;;;;;;;0.90;0.60;;;13.80;99.30;;;;;;4946179;29;20460;-87
2022/10/01 05:37:55;;;;;;;0.73;0.70;;;13.80;99.20;;;;;;4927050;29;20052;-88
2022/10/01 05:40:23;;;;;;;1.35;0.90;;;13.80;99.20;;;;;;4943137;29;20118;-87
2022/10/01 05:42:48;;;;;;;0.52;0.52;;;13.90;99.30;;;;;;4912146;29;20039;-89
2022/10/01 05:45:18;;;;;;;1.48;0.70;;;13.90;99.50;;;;;;4941478;29;20036;-88
2022/10/01 05:47:47;;;;;;;1.52;0.90;;;13.90;99.20;;;;;;4943370;29;20016;-89
2022/10/01 05:50:13;;;;;;;0.40;0.40;;;13.90;99.20;;;;;;4941743;29;20064;-87
2022/10/01 05:52:51;;;;;;;0.60;0.60;;;14.00;99.20;;;;;;4942690;29;20044;-88
2022/10/01 05:55:18;;;;;;;1.10;0.75;;;14.10;99.20;;;;;;4926593;29;20074;-86
2022/10/01 05:57:56;;;;;;;0.88;0.60;;;14.10;99.20;;;;;;4943660;29;20020;-87
2022/10/01 06:00:35;;;;;;;0.90;0.75;;;14.20;99.20;;;;;;4943265;29;20044;-88
2022/10/01 06:03:02;;;;;;;0.93;0.70;;;14.20;99.10;;;;;;4941191;29;20032;-87
2022/10/01 06:05:30;;;;;;;0.70;0.70;;;14.20;99.10;;;;;;4942614;29;20585;-88
2022/10/01 06:07:57;;;;;;;1.15;1.05;;;14.20;99.10;;;;;;4942061;29;20032;-90
2022/10/01 06:10:23;;;;;;;0.70;0.70;;;14.20;99.10;;;;;;4941373;29;20032;-88
2022/10/01 06:12:52;;;;;;;1.52;1.10;;;14.30;99.10;;;;;;4942603;29;20031;-91
2022/10/01 06:15:18;;;;;;;0.70;0.70;;;14.30;99.10;;;;;;4928387;29;20063;-91
2022/10/01 06:17:47;;;;;;;3.15;1.10;;;14.30;99.10;;;;;;4943821;29;20022;-91
2022/10/01 06:20:17;;;;;;;1.08;1.00;;;14.30;99.10;;;;;;4943319;29;20024;-89
2022/10/01 06:22:55;;;;;;;0.90;0.90;;;14.40;99.10;;;;;;4945563;29;20031;-90
2022/10/01 06:25:21;;;;;;;2.20;1.13;;;14.40;99.00;;;;;;4944483;29;20287;-92
2022/10/01 06:28:15;;;;;;;1.48;1.10;;;14.50;99.00;;;;;;4948796;29;20068;-88
2022/10/01 06:30:42;;;;;;;1.90;1.20;;;14.50;99.00;;;;;;4952319;29;20039;-88
2022/10/01 06:33:15;;;;;;;1.55;1.40;;;14.50;99.00;;;;;;4955595;29;20051;-89
2022/10/01 06:35:50;;;;;;;1.10;1.10;;;14.50;99.00;;;;;;4953151;29;20094;-90
2022/10/01 06:38:25;;;;;;;2.72;1.23;;;14.40;99.10;;;;;;4937049;29;20051;-86
2022/10/01 06:41:05;;;;;;;1.85;1.33;;;14.50;99.10;;;;;;4953609;29;20075;-90
2022/10/01 06:43:37;;;;;;;3.13;1.40;;;14.50;99.10;;;;;;4953481;29;20055;-89
2022/10/01 06:46:05;;;;;;;1.90;1.40;;;14.60;99.10;;;;;;4935357;29;20023;-88
2022/10/01 06:48:34;;;;;;;2.35;1.48;;;14.60;99.00;;;;;;4944209;29;20135;-88
2022/10/01 06:51:03;;;;;;;3.33;2.60;;;14.60;99.10;;;;;;4942967;29;20027;-89
2022/10/01 06:53:28;;;;;;;2.42;2.10;;;14.60;99.10;;;;;;4944135;29;20035;-87
2022/10/01 06:56:03;;;;;;;2.53;2.00;;;14.60;99.20;;;;;;4943907;29;20024;-90
2022/10/01 06:58:31;;;;;;;2.88;1.90;;;14.60;99.10;;;;;;4943055;29;20028;-88
2022/10/01 07:01:01;;;;;;;2.28;2.00;;;14.70;99.20;;;;;;4945465;29;20015;-88
2022/10/01 07:03:29;;;;;;;3.55;2.20;;;14.70;99.20;;;;;;4950246;29;20015;-90
2022/10/01 07:06:01;;;;;;;3.58;1.63;;;14.70;99.20;;;;;;4945541;29;20108;-87
2022/10/01 07:08:39;;;;;;;;;;;;;;;;;;;;;
2022/10/01 07:11:08;;;;;;;3.10;2.00;;;14.70;99.20;;;;;;4959928;29;20055;-88
2022/10/01 07:13:37;;;;;;;2.47;2.03;;;14.70;99.20;;;;;;4955331;29;20122;-89
2022/10/01 07:16:03;;;;;;;2.53;2.33;;;14.70;99.20;;;;;;4940492;29;20020;-87
2022/10/01 07:18:30;;;;;;;3.33;2.20;;;14.80;99.20;;;;;;4940810;29;20122;-90
2022/10/01 07:21:00;;;;;;;3.28;2.63;;;14.80;99.20;;;;;;4940854;29;20023;-89
2022/10/01 07:23:26;;;;;;;3.15;2.85;;;14.80;99.20;;;;;;4941169;29;20039;-88
2022/10/01 07:25:55;;;;;;;2.60;2.40;;;14.80;99.20;;;;;;4940829;29;20028;-90
2022/10/01 07:28:24;;;;;;;3.22;2.80;;;14.80;99.30;;;;;;4940730;29;20036;-88
2022/10/01 07:31:10;;;;;;;4.60;2.92;;;14.80;99.40;;;;;;4926138;29;20052;-90
2022/10/01 07:33:41;;;;;;;6.13;3.03;;;14.90;99.40;;;;;;4940373;29;20555;-89
2022/10/01 07:36:12;;;;;;;4.75;3.63;;;14.90;99.50;;;;;;4926313;29;20469;-88
2022/10/01 07:38:38;;;;;;;6.95;2.90;;;14.90;99.50;;;;;;4940681;29;20079;-89
2022/10/01 07:41:07;;;;;;;3.53;3.22;;;15.00;99.60;;;;;;4941309;29;20023;-89
2022/10/01 07:43:40;;;;;;;4.35;3.10;;;15.10;99.60;;;;;;4941093;29;20039;-88
2022/10/01 07:46:06;;;;;;;4.15;3.15;;;15.20;99.60;;;;;;4941978;29;20555;-89
2022/10/01 07:48:38;;;;;;;4.95;3.65;;;15.20;99.60;;;;;;4941075;29;20031;-89
2022/10/01 07:51:12;;;;;;;4.90;4.03;;;15.30;99.60;;;;;;4941148;29;20028;-90
2022/10/01 07:53:41;;;;;;;6.35;4.30;;;15.30;99.60;;;;;;4945614;29;20036;-88
2022/10/01 07:56:08;;;;;;;4.30;3.65;;;15.40;99.60;;;;;;4934402;29;20028;-88
2022/10/01 07:58:37;;;;;;;4.45;3.22;;;15.40;99.60;;;;;;4944250;29;20443;-89
2022/10/01 08:01:03;;;;;;;3.95;3.10;;;15.40;99.60;;;;;;4940393;29;20135;-89
2022/10/01 08:03:29;;;;;;;4.50;3.58;;;15.40;99.60;;;;;;4940531;29;20479;-88
2022/10/01 08:06:02;;;;;;;4.63;3.20;;;15.60;99.70;;;;;;4939667;29;20384;-88
2022/10/01 08:08:30;;;;;;;3.40;3.10;;;15.70;99.70;;;;;;4939685;29;20038;-89
2022/10/01 08:11:06;;;;;;;4.18;3.30;;;15.80;99.70;;;;;;4938763;29;20031;-89
2022/10/01 08:13:33;;;;;;;4.30;3.60;;;15.90;99.60;;;;;;4925413;29;20476;-90
2022/10/01 08:16:13;;;;;;;4.32;3.47;;;15.90;99.50;;;;;;4924251;29;20027;-89
2022/10/01 08:18:40;;;;;;;4.35;3.50;;;16.00;99.50;;;;;;4939108;29;20028;-88
2022/10/01 08:21:24;;;;;;;4.05;3.70;;;16.10;99.40;;;;;;4940650;29;20034;-88
2022/10/01 08:23:50;;;;;;;4.53;3.75;;;16.10;99.30;;;;;;4940049;29;20035;-87
2022/10/01 08:26:16;;;;;;;4.03;3.40;;;16.20;99.30;;;;;;4939499;29;20031;-89
2022/10/01 08:28:42;;;;;;;4.55;3.40;;;16.20;99.20;;;;;;4939550;29;20055;-87
2022/10/01 08:31:08;;;;;;;3.90;2.97;;;16.20;99.20;;;;;;4939372;29;20409;-88
2022/10/01 08:33:37;;;;;;;4.97;3.78;;;16.30;99.20;;;;;;4939559;29;20079;-89
2022/10/01 08:36:07;;;;;;;4.05;3.65;;;16.30;99.20;;;;;;4939686;29;20388;-88
2022/10/01 08:38:39;;;;;;;7.20;3.97;;;16.30;99.20;;;;;;4924263;29;20048;-90
2022/10/01 08:41:37;;;;;;;4.00;3.60;;;16.20;99.20;;;;;;4943183;29;20484;-90
2022/10/01 08:44:06;;;;;;;4.55;3.70;;;16.20;99.20;;;;;;4941317;29;20020;-88
2022/10/01 08:46:35;;;;;;;4.03;3.63;;;16.20;99.10;;;;;;4941704;29;20171;-87
2022/10/01 08:49:22;;;;;;;9.75;8.45;;;16.20;99.20;;;;;;4945575;29;20127;-88
2022/10/01 08:52:20;;;;;;;8.35;6.25;;;16.20;99.20;;;;;;4960123;29;20035;-85
2022/10/01 08:54:51;;;;;;;6.57;5.05;;;16.20;99.20;;;;;;4955503;29;20042;-87
2022/10/01 08:57:23;;;;;;;6.03;4.30;;;16.20;99.20;;;;;;4944045;29;20070;-87
2022/10/01 08:59:53;;;;;;;4.55;3.67;;;16.20;99.30;;;;;;4958956;29;20055;-88
2022/10/01 09:02:43;;;;;;;4.53;3.78;;;16.30;99.40;;;;;;4939760;29;20043;-88
2022/10/01 09:05:32;;;;;;;5.60;3.67;;;16.40;99.50;;;;;;4926544;29;20468;-85
2022/10/01 09:08:14;;;;;;;4.53;3.58;;;16.50;99.50;;;;;;4939351;29;20044;-88
2022/10/01 09:10:47;;;;;;;3.75;3.45;;;16.60;99.80;;;;;;4941773;29;20055;-89
2022/10/01 09:13:40;;;;;;;3.92;3.53;;;16.60;99.50;;;;;;4943238;29;20031;-90
2022/10/01 09:16:46;;;;;;;5.40;3.20;;;16.60;99.40;;;;;;4943981;29;20030;-90
2022/10/01 09:19:38;;;;;;;6.07;3.10;;;16.60;99.40;;;;;;4943201;29;20035;-88
2022/10/01 09:22:37;;;;;;;4.10;3.03;;;16.60;99.40;;;;;;4898478;29;20046;-87
2022/10/01 09:25:20;;;;;;;4.88;2.80;;;16.70;99.50;;;;;;4942703;29;20028;-88
2022/10/01 09:27:50;;;;;;;2.92;2.20;;;16.90;99.70;;;;;;4943639;29;20031;-88
2022/10/01 09:30:22;;;;;;;3.05;2.10;;;16.90;99.30;;;;;;4943658;29;20019;-88
2022/10/01 09:32:57;;;;;;;4.95;2.47;;;17.00;99.20;;;;;;4943347;29;20028;-88
2022/10/01 09:35:33;;;;;;;5.10;2.22;;;16.90;99.10;;;;;;4943243;29;20550;-87
2022/10/01 09:38:45;;;;;;;1.67;1.45;;;16.90;99.00;;;;;;4942743;29;20104;-87
2022/10/01 09:41:11;;;;;;;4.63;2.00;;;16.80;99.10;;;;;;4945588;29;20118;-89
2022/10/01 09:43:46;;;;;;;2.53;1.42;;;16.80;99.00;;;;;;4956442;29;20030;-87
2022/10/01 09:46:16;;;;;;;2.75;1.52;;;16.90;99.10;;;;;;4961286;29;20096;-88
2022/10/01 09:49:05;;;;;;;3.75;1.50;;;16.90;99.10;;;;;;4961899;29;20486;-88
2022/10/01 09:51:43;;;;;;;3.47;1.55;;;17.00;99.10;;;;;;4953828;29;20039;-87
2022/10/01 09:54:41;;;;;;;2.75;1.00;;;17.00;99.10;;;;;;4943679;29;20055;-87
2022/10/01 09:57:31;;;;;;;7.68;4.85;;;17.00;99.00;;;;;;4945252;29;20111;-87
2022/10/01 10:00:10;;;;;;;11.90;7.72;;;16.90;98.90;;;;;;4944691;29;20036;-87
2022/10/01 10:02:50;;;;;;;8.82;3.90;;;16.80;98.80;;;;;;4942801;29;20027;-87
2022/10/01 10:05:26;;;;;;;5.78;2.20;;;16.70;98.80;;;;;;4944430;29;20032;-90
2022/10/01 10:08:02;;;;;;;5.07;1.50;;;16.70;98.90;;;;;;4943187;29;20024;-89
2022/10/01 10:10:34;;;;;;;4.15;1.50;;;16.70;98.80;;;;;;4942444;29;20035;-89
2022/10/01 10:13:10;;;;;;;6.03;1.75;;;16.70;99.00;;;;;;4943204;29;20040;-87
2022/10/01 10:15:48;;;;;;;3.35;1.40;;;16.70;98.80;;;;;;4942661;29;20031;-88
2022/10/01 10:18:16;;;;;;;5.30;1.40;;;16.60;98.90;;;;;;4943074;29;20079;-89
2022/10/01 10:20:52;;;;;;;4.72;1.23;;;16.60;98.90;;;;;;4943202;29;20035;-89
2022/10/01 10:23:28;;;;;;;2.95;1.05;;;16.70;99.00;;;;;;4942658;29;20436;-88
2022/10/01 10:26:02;;;;;;;2.83;1.10;;;16.70;98.90;;;;;;4942340;29;20028;-89
2022/10/01 10:28:43;;;;;;;5.10;1.58;;;16.80;99.00;;;;;;4941878;29;20156;-90
2022/10/01 10:31:46;;;;;;;2.03;0.73;;;16.80;99.00;;;;;;4943438;29;20035;-89
2022/10/01 10:34:25;;;;;;;7.00;1.58;;;16.80;99.00;;;;;;4941368;29;20058;-88
2022/10/01 10:36:57;;;;;;;7.05;1.63;;;16.90;99.00;;;;;;4943810;29;20460;-89
2022/10/01 10:39:27;;;;;;;5.13;1.48;;;17.00;99.10;;;;;;4942531;29;20032;-89
2022/10/01 10:41:54;;;;;;;4.53;1.40;;;17.00;99.10;;;;;;4961961;29;20031;-88
2022/10/01 10:44:24;;;;;;;3.28;1.33;;;17.00;99.10;;;;;;4962020;29;20020;-89
2022/10/01 10:46:52;;;;;;;3.63;1.20;;;17.10;99.20;;;;;;4961272;29;20079;-88
2022/10/01 10:49:30;;;;;;;4.55;1.60;;;17.30;99.20;;;;;;4959643;29;20012;-89
2022/10/01 10:51:59;;;;;;;4.00;1.30;;;17.40;99.20;;;;;;4951821;29;20043;-85
2022/10/01 10:54:39;;;;;;;5.95;1.52;;;17.50;99.10;;;;;;4944977;29;20086;-88
2022/10/01 10:57:32;;;;;;;6.93;1.60;;;17.60;98.80;;;;;;4925206;29;20047;-87
2022/10/01 11:00:17;;;;;;;6.47;1.55;;;17.80;98.70;;;;;;4940768;29;20027;-88
2022/10/01 11:02:56;;;;;;;5.35;1.73;;;17.80;98.60;;;;;;4942411;29;20028;-87
2022/10/01 11:05:28;;;;;;;3.97;1.25;;;17.90;98.50;;;;;;4944310;29;20475;-88
2022/10/01 11:07:58;;;;;;;5.10;1.60;;;18.10;98.50;;;;;;4947121;29;20023;-86
2022/10/01 11:10:40;;;;;;;6.45;1.50;;;18.10;98.40;;;;;;4946896;29;20019;-88
2022/10/01 11:13:44;;;;;;;7.05;1.52;;;18.20;98.20;;;;;;4949060;29;20035;-88
2022/10/01 11:16:10;;;;;;;5.88;2.38;;;18.20;98.00;;;;;;4952505;29;20091;-90
2022/10/01 11:18:42;;;;;;;6.82;2.67;;;18.30;97.70;;;;;;4952104;29;20032;-90
2022/10/01 11:21:32;;;;;;;5.70;2.38;;;18.20;97.30;;;;;;4954469;29;20523;-88
2022/10/01 11:24:44;;;;;;;6.93;1.95;;;18.00;97.20;;;;;;4951373;29;20027;-88
2022/10/01 11:27:36;;;;;;;6.90;1.40;;;17.80;97.40;;;;;;4949808;29;20060;-88
2022/10/01 11:30:17;;;;;;;4.82;1.55;;;17.70;97.50;;;;;;4951710;29;20095;-90
2022/10/01 11:33:05;;;;;;;7.38;2.47;;;17.70;97.60;;;;;;4949300;29;20031;-86
2022/10/01 11:36:06;;;;;;;6.63;2.55;;;17.60;97.50;;;;;;4945700;29;20035;-85
2022/10/01 11:39:16;;;;;;;5.90;2.15;;;17.60;97.60;;;;;;4940222;29;20078;-85
2022/10/01 11:41:41;;;;;;;5.65;2.20;;;17.60;97.70;;;;;;4848739;29;20418;-86
2022/10/01 11:44:17;;;;;;;6.82;2.00;;;17.60;97.60;;;;;;4929686;29;20051;-86
2022/10/01 11:46:58;;;;;;;4.97;1.70;;;17.50;97.40;;;;;;4940188;29;20028;-85
2022/10/01 11:49:48;;;;;;;7.05;1.88;;;17.50;97.40;;;;;;4938513;29;20067;-87
2022/10/01 11:52:27;;;;;;;5.32;1.67;;;17.50;97.40;;;;;;4931500;29;20048;-84
2022/10/01 12:01:18;;;;;;;5.60;1.77;;;17.60;97.00;;;;;;4939817;29;20531;-87
2022/10/01 12:04:18;;;;;;;6.57;2.10;;;17.50;96.70;;;;;;4939090;29;20365;-86
2022/10/01 12:06:53;;;;;;;5.70;2.10;;;17.40;96.60;;;;;;4940474;29;20024;-87
2022/10/01 12:09:35;;;;;;;6.43;2.72;;;17.30;96.60;;;;;;4940601;29;20031;-88
2022/10/01 12:12:24;;;;;;;6.40;1.80;;;17.30;96.50;;;;;;4938769;29;20035;-86
2022/10/01 12:15:08;;;;;;;4.50;1.60;;;17.30;96.60;;;;;;4942366;29;20047;-87
2022/10/01 12:17:42;;;;;;;6.72;1.65;;;17.40;96.70;;;;;;4938088;29;20055;-87
2022/10/01 12:20:37;;;;;;;8.45;1.80;;;17.40;96.70;;;;;;4940981;29;20030;-87
2022/10/01 12:23:19;;;;;;;7.50;2.05;;;17.50;96.70;;;;;;4955050;29;20028;-85
2022/10/01 12:25:53;;;;;;;9.68;1.83;;;17.50;96.60;;;;;;4940841;29;20134;-86
2022/10/01 12:28:38;;;;;;;5.85;1.73;;;17.50;96.60;;;;;;4945550;29;20036;-87
2022/10/01 12:31:19;;;;;;;6.43;1.65;;;17.50;96.10;;;;;;4959680;29;20071;-88
2022/10/01 12:34:29;;;;;;;5.90;1.73;;;17.40;95.90;;;;;;4943588;29;20019;-86
2022/10/01 12:37:20;;;;;;;5.97;1.55;;;17.40;95.60;;;;;;4948005;29;20028;-87
2022/10/01 12:40:19;;;;;;;10.50;1.70;;;17.20;95.40;;;;;;4961396;29;20051;-88
2022/10/01 12:42:51;;;;;;;5.43;2.20;;;17.30;95.60;;;;;;4947523;29;20038;-87
2022/10/01 12:45:19;;;;;;;6.88;1.90;;;17.40;95.60;;;;;;4976277;29;20028;-86
2022/10/01 12:48:18;;;;;;;4.05;1.50;;;17.50;95.50;;;;;;4951047;29;20034;-86
2022/10/01 12:51:05;;;;;;;5.25;1.90;;;17.60;95.30;;;;;;4945777;29;20047;-86
2022/10/01 12:53:57;;;;;;;4.50;1.50;;;17.60;95.30;;;;;;4949457;29;20471;-87
2022/10/01 12:57:03;;;;;;;4.95;1.65;;;17.70;95.40;;;;;;4955491;29;20019;-86
2022/10/01 12:59:49;;;;;;;6.90;1.80;;;17.70;95.30;;;;;;4930177;29;20134;-87
2022/10/01 13:02:39;;;;;;;3.55;1.55;;;17.70;95.20;;;;;;4962512;29;20043;-87
2022/10/01 13:05:43;;;;;;;4.82;1.42;;;17.70;95.20;;;;;;4944047;29;20118;-87
2022/10/01 13:08:43;;;;;;;6.82;1.80;;;17.70;95.20;;;;;;4943946;29;20033;-85
2022/10/01 13:11:25;;;;;;;4.63;1.70;;;17.60;95.10;;;;;;4943874;29;20086;-85
2022/10/01 13:13:52;;;;;;;4.35;1.20;;;17.70;95.10;;;;;;4943560;29;20298;-87
2022/10/01 13:16:36;;;;;;;5.03;1.30;;;17.70;95.20;;;;;;4944139;29;20031;-87
2022/10/01 13:19:37;;;;;;;5.72;1.67;;;17.80;95.10;;;;;;4943797;29;20360;-87
2022/10/01 13:22:29;;;;;;;6.13;1.55;;;17.80;95.00;;;;;;4941116;29;20518;-86
2022/10/01 13:25:18;;;;;;;7.70;2.13;;;17.80;95.00;;;;;;4944661;29;20026;-87
2022/10/01 13:28:10;;;;;;;6.75;2.28;;;17.90;94.90;;;;;;4963756;29;20507;-86
2022/10/01 13:30:48;;;;;;;7.53;2.13;;;18.00;94.70;;;;;;4944999;29;20139;-87
2022/10/01 13:33:26;;;;;;;7.53;2.08;;;18.00;94.50;;;;;;4944124;29;20031;-88
2022/10/01 13:36:01;;;;;;;5.15;1.60;;;18.00;94.60;;;;;;4944764;29;20476;-86